sensor_id;sensor_type;location;lat;lon;timestamp;temperature;humidity
3478;DHT22;37937;61.490;23.506;2023-05-10T00:00:31;6.80;1.00
3478;DHT22;37937;61.490;23.506;2023-05-10T00:02:56;6.60;1.00
3478;DHT22;37937;61.490;23.506;2023-05-10T00:05:22;6.60;1.00
3478;DHT22;37937;61.490;23.506;2023-05-10T00:07:47;6.50;1.00
3478;DHT22;37937;61.490;23.506;2023-05-10T00:10:13;6.50;1.00
3478;DHT22;37937;61.490;23.506;2023-05-10T00:12:38;6.50;1.00
3478;DHT22;37937;61.490;23.506;2023-05-10T00:15:04;6.50;1.00
3478;DHT22;37937;61.490;23.506;2023-05-10T00:17:30;6.50;1.00
3478;DHT22;37937;61.490;23.506;2023-05-10T00:19:56;6.50;1.00
3478;DHT22;37937;61.490;23.506;2023-05-10T00:22:21;6.40;1.00
3478;DHT22;37937;61.490;23.506;2023-05-10T00:24:47;6.40;1.00
3478;DHT22;37937;61.490;23.506;2023-05-10T00:27:12;6.40;1.00
3478;DHT22;37937;61.490;23.506;2023-05-10T00:29:38;6.40;1.00
3478;DHT22;37937;61.490;23.506;2023-05-10T00:32:03;6.30;1.00
3478;DHT22;37937;61.490;23.506;2023-05-10T00:34:29;6.30;1.00
3478;DHT22;37937;61.490;23.506;2023-05-10T00:36:55;6.30;1.00
3478;DHT22;37937;61.490;23.506;2023-05-10T00:39:21;6.30;1.00
3478;DHT22;37937;61.490;23.506;2023-05-10T00:41:47;6.20;1.00
3478;DHT22;37937;61.490;23.506;2023-05-10T00:44:12;6.20;1.00
3478;DHT22;37937;61.490;23.506;2023-05-10T00:46:38;6.20;1.00
3478;DHT22;37937;61.490;23.506;2023-05-10T00:49:03;6.10;1.00
3478;DHT22;37937;61.490;23.506;2023-05-10T00:51:29;6.10;1.00
3478;DHT22;37937;61.490;23.506;2023-05-10T00:53:56;6.10;1.00
3478;DHT22;37937;61.490;23.506;2023-05-10T00:56:22;6.00;1.00
3478;DHT22;37937;61.490;23.506;2023-05-10T00:58:49;6.10;1.00
3478;DHT22;37937;61.490;23.506;2023-05-10T01:01:15;6.10;1.00
3478;DHT22;37937;61.490;23.506;2023-05-10T01:03:41;6.00;1.00
3478;DHT22;37937;61.490;23.506;2023-05-10T01:06:07;6.00;1.00
3478;DHT22;37937;61.490;23.506;2023-05-10T01:08:33;5.80;1.00
3478;DHT22;37937;61.490;23.506;2023-05-10T01:10:58;5.80;1.00
3478;DHT22;37937;61.490;23.506;2023-05-10T01:13:31;5.70;1.00
3478;DHT22;37937;61.490;23.506;2023-05-10T01:15:58;5.60;1.00
3478;DHT22;37937;61.490;23.506;2023-05-10T01:18:24;5.70;1.00
3478;DHT22;37937;61.490;23.506;2023-05-10T01:20:53;5.50;1.00
3478;DHT22;37937;61.490;23.506;2023-05-10T01:23:28;5.50;1.00
3478;DHT22;37937;61.490;23.506;2023-05-10T01:28:39;5.50;1.00
3478;DHT22;37937;61.490;23.506;2023-05-10T01:31:22;5.40;1.00
3478;DHT22;37937;61.490;23.506;2023-05-10T01:34:06;5.40;1.00
3478;DHT22;37937;61.490;23.506;2023-05-10T01:36:35;5.30;1.00
3478;DHT22;37937;61.490;23.506;2023-05-10T01:39:06;5.30;1.00
3478;DHT22;37937;61.490;23.506;2023-05-10T01:46:40;5.10;1.00
3478;DHT22;37937;61.490;23.506;2023-05-10T01:49:11;5.10;1.00
3478;DHT22;37937;61.490;23.506;2023-05-10T01:51:40;5.00;1.00
3478;DHT22;37937;61.490;23.506;2023-05-10T01:54:07;4.90;1.00
3478;DHT22;37937;61.490;23.506;2023-05-10T01:56:33;5.00;1.00
3478;DHT22;37937;61.490;23.506;2023-05-10T01:59:00;5.00;1.00
3478;DHT22;37937;61.490;23.506;2023-05-10T02:01:26;5.00;1.00
3478;DHT22;37937;61.490;23.506;2023-05-10T02:03:52;5.00;1.00
3478;DHT22;37937;61.490;23.506;2023-05-10T02:06:19;5.00;1.00
3478;DHT22;37937;61.490;23.506;2023-05-10T02:08:45;4.90;1.00
3478;DHT22;37937;61.490;23.506;2023-05-10T02:11:12;5.00;1.00
3478;DHT22;37937;61.490;23.506;2023-05-10T02:13:38;5.00;1.00
3478;DHT22;37937;61.490;23.506;2023-05-10T02:16:04;4.90;1.00
3478;DHT22;37937;61.490;23.506;2023-05-10T02:18:30;4.90;1.00
3478;DHT22;37937;61.490;23.506;2023-05-10T02:20:57;4.80;1.00
3478;DHT22;37937;61.490;23.506;2023-05-10T02:23:23;4.80;1.00
3478;DHT22;37937;61.490;23.506;2023-05-10T02:25:49;4.80;1.00
3478;DHT22;37937;61.490;23.506;2023-05-10T02:28:15;4.90;1.00
3478;DHT22;37937;61.490;23.506;2023-05-10T02:30:42;4.90;1.00
3478;DHT22;37937;61.490;23.506;2023-05-10T02:33:08;4.90;1.00
3478;DHT22;37937;61.490;23.506;2023-05-10T02:35:33;5.00;1.00
3478;DHT22;37937;61.490;23.506;2023-05-10T02:38:00;4.90;1.00
3478;DHT22;37937;61.490;23.506;2023-05-10T02:40:26;5.00;1.00
3478;DHT22;37937;61.490;23.506;2023-05-10T02:42:53;5.00;1.00
3478;DHT22;37937;61.490;23.506;2023-05-10T02:45:20;5.10;1.00
3478;DHT22;37937;61.490;23.506;2023-05-10T02:47:47;5.10;1.00
3478;DHT22;37937;61.490;23.506;2023-05-10T02:50:13;5.00;1.00
3478;DHT22;37937;61.490;23.506;2023-05-10T02:52:50;5.10;1.00
3478;DHT22;37937;61.490;23.506;2023-05-10T02:55:17;5.10;1.00
3478;DHT22;37937;61.490;23.506;2023-05-10T02:57:51;5.10;1.00
3478;DHT22;37937;61.490;23.506;2023-05-10T03:00:17;5.10;1.00
3478;DHT22;37937;61.490;23.506;2023-05-10T03:02:43;5.10;1.00
3478;DHT22;37937;61.490;23.506;2023-05-10T03:05:08;5.10;1.00
3478;DHT22;37937;61.490;23.506;2023-05-10T03:07:34;5.10;1.00
3478;DHT22;37937;61.490;23.506;2023-05-10T03:10:00;5.10;1.00
3478;DHT22;37937;61.490;23.506;2023-05-10T03:17:30;5.10;1.00
3478;DHT22;37937;61.490;23.506;2023-05-10T03:20:04;5.20;1.00
3478;DHT22;37937;61.490;23.506;2023-05-10T03:22:36;5.20;1.00
3478;DHT22;37937;61.490;23.506;2023-05-10T03:25:04;5.30;1.00
3478;DHT22;37937;61.490;23.506;2023-05-10T03:27:31;5.30;1.00
3478;DHT22;37937;61.490;23.506;2023-05-10T03:29:57;5.40;1.00
3478;DHT22;37937;61.490;23.506;2023-05-10T03:32:23;5.50;1.00
3478;DHT22;37937;61.490;23.506;2023-05-10T03:34:48;5.50;1.00
3478;DHT22;37937;61.490;23.506;2023-05-10T03:37:14;5.60;1.00
3478;DHT22;37937;61.490;23.506;2023-05-10T03:39:40;5.70;1.00
3478;DHT22;37937;61.490;23.506;2023-05-10T03:42:05;5.70;1.00
3478;DHT22;37937;61.490;23.506;2023-05-10T03:44:31;5.80;1.00
3478;DHT22;37937;61.490;23.506;2023-05-10T03:46:58;5.80;1.00
3478;DHT22;37937;61.490;23.506;2023-05-10T03:49:24;5.90;1.00
3478;DHT22;37937;61.490;23.506;2023-05-10T03:51:49;5.90;1.00
3478;DHT22;37937;61.490;23.506;2023-05-10T03:54:15;6.00;1.00
3478;DHT22;37937;61.490;23.506;2023-05-10T03:56:41;6.00;1.00
3478;DHT22;37937;61.490;23.506;2023-05-10T03:59:06;6.10;1.00
3478;DHT22;37937;61.490;23.506;2023-05-10T04:01:35;6.10;1.00
3478;DHT22;37937;61.490;23.506;2023-05-10T04:04:01;6.30;1.00
3478;DHT22;37937;61.490;23.506;2023-05-10T04:06:26;6.70;1.00
3478;DHT22;37937;61.490;23.506;2023-05-10T04:08:52;6.90;1.00
3478;DHT22;37937;61.490;23.506;2023-05-10T04:11:17;7.30;1.00
3478;DHT22;37937;61.490;23.506;2023-05-10T04:13:43;7.50;1.00
3478;DHT22;37937;61.490;23.506;2023-05-10T04:16:09;7.80;1.00
3478;DHT22;37937;61.490;23.506;2023-05-10T04:18:34;8.40;1.00
3478;DHT22;37937;61.490;23.506;2023-05-10T04:21:00;8.70;1.00
3478;DHT22;37937;61.490;23.506;2023-05-10T04:23:26;9.30;1.00
3478;DHT22;37937;61.490;23.506;2023-05-10T04:25:52;9.40;1.00
3478;DHT22;37937;61.490;23.506;2023-05-10T04:28:17;9.70;1.00
3478;DHT22;37937;61.490;23.506;2023-05-10T04:30:43;9.70;1.00
3478;DHT22;37937;61.490;23.506;2023-05-10T04:33:09;10.10;1.00
3478;DHT22;37937;61.490;23.506;2023-05-10T04:35:34;10.40;1.00
3478;DHT22;37937;61.490;23.506;2023-05-10T04:38:00;10.80;1.00
3478;DHT22;37937;61.490;23.506;2023-05-10T04:40:26;11.00;1.00
3478;DHT22;37937;61.490;23.506;2023-05-10T04:42:51;10.50;1.00
3478;DHT22;37937;61.490;23.506;2023-05-10T04:45:17;10.70;1.00
3478;DHT22;37937;61.490;23.506;2023-05-10T04:47:42;11.10;1.00
3478;DHT22;37937;61.490;23.506;2023-05-10T04:50:08;11.40;1.00
3478;DHT22;37937;61.490;23.506;2023-05-10T04:52:34;11.30;1.00
3478;DHT22;37937;61.490;23.506;2023-05-10T04:54:59;11.40;1.00
3478;DHT22;37937;61.490;23.506;2023-05-10T04:57:25;11.60;1.00
3478;DHT22;37937;61.490;23.506;2023-05-10T04:59:50;11.80;1.00
3478;DHT22;37937;61.490;23.506;2023-05-10T05:02:16;11.70;1.00
3478;DHT22;37937;61.490;23.506;2023-05-10T05:04:42;12.30;1.00
3478;DHT22;37937;61.490;23.506;2023-05-10T05:07:07;12.90;1.00
3478;DHT22;37937;61.490;23.506;2023-05-10T05:09:33;12.90;1.00
3478;DHT22;37937;61.490;23.506;2023-05-10T05:11:58;13.20;1.00
3478;DHT22;37937;61.490;23.506;2023-05-10T05:14:24;13.10;1.00
3478;DHT22;37937;61.490;23.506;2023-05-10T05:16:52;13.30;1.00
3478;DHT22;37937;61.490;23.506;2023-05-10T05:19:18;13.20;1.00
3478;DHT22;37937;61.490;23.506;2023-05-10T05:21:44;13.60;1.00
3478;DHT22;37937;61.490;23.506;2023-05-10T05:24:09;14.10;1.00
3478;DHT22;37937;61.490;23.506;2023-05-10T05:26:36;14.30;1.00
3478;DHT22;37937;61.490;23.506;2023-05-10T05:29:02;14.50;1.00
3478;DHT22;37937;61.490;23.506;2023-05-10T05:31:28;14.80;1.00
3478;DHT22;37937;61.490;23.506;2023-05-10T05:33:54;14.50;1.00
3478;DHT22;37937;61.490;23.506;2023-05-10T05:36:19;14.20;1.00
3478;DHT22;37937;61.490;23.506;2023-05-10T05:38:45;14.40;1.00
3478;DHT22;37937;61.490;23.506;2023-05-10T05:41:10;14.30;1.00
3478;DHT22;37937;61.490;23.506;2023-05-10T05:43:36;14.70;1.00
3478;DHT22;37937;61.490;23.506;2023-05-10T05:46:01;15.00;1.00
3478;DHT22;37937;61.490;23.506;2023-05-10T05:48:28;15.40;1.00
3478;DHT22;37937;61.490;23.506;2023-05-10T05:50:55;15.60;1.00
3478;DHT22;37937;61.490;23.506;2023-05-10T05:53:21;15.80;1.00
3478;DHT22;37937;61.490;23.506;2023-05-10T05:55:51;15.20;1.00
3478;DHT22;37937;61.490;23.506;2023-05-10T05:58:16;14.70;1.00
3478;DHT22;37937;61.490;23.506;2023-05-10T06:00:42;14.90;1.00
3478;DHT22;37937;61.490;23.506;2023-05-10T06:03:08;15.50;1.00
3478;DHT22;37937;61.490;23.506;2023-05-10T06:05:33;15.90;1.00
3478;DHT22;37937;61.490;23.506;2023-05-10T06:07:59;16.00;1.00
3478;DHT22;37937;61.490;23.506;2023-05-10T06:10:25;16.40;1.00
3478;DHT22;37937;61.490;23.506;2023-05-10T06:12:50;16.90;1.00
3478;DHT22;37937;61.490;23.506;2023-05-10T06:15:16;16.60;1.00
3478;DHT22;37937;61.490;23.506;2023-05-10T06:17:42;17.10;1.00
3478;DHT22;37937;61.490;23.506;2023-05-10T06:20:08;17.80;1.00
3478;DHT22;37937;61.490;23.506;2023-05-10T06:22:34;17.00;1.00
3478;DHT22;37937;61.490;23.506;2023-05-10T06:25:00;17.60;1.00
3478;DHT22;37937;61.490;23.506;2023-05-10T06:27:25;17.50;1.00
3478;DHT22;37937;61.490;23.506;2023-05-10T06:29:51;17.90;1.00
3478;DHT22;37937;61.490;23.506;2023-05-10T06:32:16;16.80;1.00
3478;DHT22;37937;61.490;23.506;2023-05-10T06:34:42;17.80;1.00
3478;DHT22;37937;61.490;23.506;2023-05-10T06:37:08;18.00;1.00
3478;DHT22;37937;61.490;23.506;2023-05-10T06:39:34;17.30;1.00
3478;DHT22;37937;61.490;23.506;2023-05-10T06:41:59;18.10;1.00
3478;DHT22;37937;61.490;23.506;2023-05-10T06:44:26;18.00;1.00
3478;DHT22;37937;61.490;23.506;2023-05-10T06:46:52;18.60;1.00
3478;DHT22;37937;61.490;23.506;2023-05-10T06:49:18;18.90;1.00
3478;DHT22;37937;61.490;23.506;2023-05-10T06:51:44;19.20;1.00
3478;DHT22;37937;61.490;23.506;2023-05-10T06:54:10;16.90;1.00
3478;DHT22;37937;61.490;23.506;2023-05-10T06:56:35;17.80;1.00
3478;DHT22;37937;61.490;23.506;2023-05-10T06:59:01;18.70;1.00
3478;DHT22;37937;61.490;23.506;2023-05-10T07:01:27;18.50;1.00
3478;DHT22;37937;61.490;23.506;2023-05-10T07:03:52;18.30;1.00
3478;DHT22;37937;61.490;23.506;2023-05-10T07:06:18;18.30;1.00
3478;DHT22;37937;61.490;23.506;2023-05-10T07:08:43;18.20;1.00
3478;DHT22;37937;61.490;23.506;2023-05-10T07:11:09;17.40;1.00
3478;DHT22;37937;61.490;23.506;2023-05-10T07:13:35;17.00;1.00
3478;DHT22;37937;61.490;23.506;2023-05-10T07:16:01;16.80;1.00
3478;DHT22;37937;61.490;23.506;2023-05-10T07:18:27;17.10;1.00
3478;DHT22;37937;61.490;23.506;2023-05-10T07:20:52;17.70;1.00
3478;DHT22;37937;61.490;23.506;2023-05-10T07:23:18;17.20;1.00
3478;DHT22;37937;61.490;23.506;2023-05-10T07:25:45;17.90;1.00
3478;DHT22;37937;61.490;23.506;2023-05-10T07:28:11;18.70;1.00
3478;DHT22;37937;61.490;23.506;2023-05-10T07:30:36;17.80;1.00
3478;DHT22;37937;61.490;23.506;2023-05-10T07:33:02;18.00;1.00
3478;DHT22;37937;61.490;23.506;2023-05-10T07:35:27;18.20;1.00
3478;DHT22;37937;61.490;23.506;2023-05-10T07:37:53;19.20;1.00
3478;DHT22;37937;61.490;23.506;2023-05-10T07:40:19;19.20;1.00
3478;DHT22;37937;61.490;23.506;2023-05-10T07:42:44;19.10;1.00
3478;DHT22;37937;61.490;23.506;2023-05-10T07:45:10;19.90;1.00
3478;DHT22;37937;61.490;23.506;2023-05-10T07:47:35;19.50;1.00
3478;DHT22;37937;61.490;23.506;2023-05-10T07:50:01;18.60;1.00
3478;DHT22;37937;61.490;23.506;2023-05-10T07:52:26;18.60;1.00
3478;DHT22;37937;61.490;23.506;2023-05-10T07:54:52;19.50;1.00
3478;DHT22;37937;61.490;23.506;2023-05-10T07:57:18;20.00;1.00
3478;DHT22;37937;61.490;23.506;2023-05-10T07:59:44;19.40;1.00
3478;DHT22;37937;61.490;23.506;2023-05-10T08:02:10;20.00;1.00
3478;DHT22;37937;61.490;23.506;2023-05-10T08:04:36;20.50;1.00
3478;DHT22;37937;61.490;23.506;2023-05-10T08:07:01;20.60;1.00
3478;DHT22;37937;61.490;23.506;2023-05-10T08:09:27;20.80;1.00
3478;DHT22;37937;61.490;23.506;2023-05-10T08:11:52;20.60;1.00
3478;DHT22;37937;61.490;23.506;2023-05-10T08:14:18;20.20;1.00
3478;DHT22;37937;61.490;23.506;2023-05-10T08:16:44;20.10;1.00
3478;DHT22;37937;61.490;23.506;2023-05-10T08:19:09;20.20;1.00
3478;DHT22;37937;61.490;23.506;2023-05-10T08:21:35;20.30;1.00
3478;DHT22;37937;61.490;23.506;2023-05-10T08:24:01;19.20;1.00
3478;DHT22;37937;61.490;23.506;2023-05-10T08:26:27;19.00;1.00
3478;DHT22;37937;61.490;23.506;2023-05-10T08:28:52;19.90;1.00
3478;DHT22;37937;61.490;23.506;2023-05-10T08:31:18;20.40;1.00
3478;DHT22;37937;61.490;23.506;2023-05-10T08:33:43;20.40;1.00
3478;DHT22;37937;61.490;23.506;2023-05-10T08:36:09;20.60;1.00
3478;DHT22;37937;61.490;23.506;2023-05-10T08:38:35;21.10;1.00
3478;DHT22;37937;61.490;23.506;2023-05-10T08:41:01;21.70;1.00
3478;DHT22;37937;61.490;23.506;2023-05-10T08:43:27;20.90;1.00
3478;DHT22;37937;61.490;23.506;2023-05-10T08:45:54;21.30;1.00
3478;DHT22;37937;61.490;23.506;2023-05-10T08:48:22;21.30;1.00
3478;DHT22;37937;61.490;23.506;2023-05-10T08:50:48;21.80;1.00
3478;DHT22;37937;61.490;23.506;2023-05-10T08:53:14;21.50;1.00
3478;DHT22;37937;61.490;23.506;2023-05-10T08:55:40;20.70;1.00
3478;DHT22;37937;61.490;23.506;2023-05-10T08:58:07;21.10;1.00
3478;DHT22;37937;61.490;23.506;2023-05-10T09:00:33;21.30;1.00
3478;DHT22;37937;61.490;23.506;2023-05-10T09:02:59;20.60;1.00
3478;DHT22;37937;61.490;23.506;2023-05-10T09:05:25;21.40;1.00
3478;DHT22;37937;61.490;23.506;2023-05-10T09:07:51;22.00;1.00
3478;DHT22;37937;61.490;23.506;2023-05-10T09:10:16;22.30;1.00
3478;DHT22;37937;61.490;23.506;2023-05-10T09:12:43;22.60;1.00
3478;DHT22;37937;61.490;23.506;2023-05-10T09:15:09;22.60;1.00
3478;DHT22;37937;61.490;23.506;2023-05-10T09:17:35;22.60;1.00
3478;DHT22;37937;61.490;23.506;2023-05-10T09:20:04;21.90;1.00
3478;DHT22;37937;61.490;23.506;2023-05-10T09:22:30;22.70;1.00
3478;DHT22;37937;61.490;23.506;2023-05-10T09:25:08;23.20;1.00
3478;DHT22;37937;61.490;23.506;2023-05-10T09:27:35;23.00;1.00
3478;DHT22;37937;61.490;23.506;2023-05-10T09:30:01;22.70;1.00
3478;DHT22;37937;61.490;23.506;2023-05-10T09:32:45;23.30;1.00
3478;DHT22;37937;61.490;23.506;2023-05-10T09:35:11;22.90;1.00
3478;DHT22;37937;61.490;23.506;2023-05-10T09:37:42;22.70;1.00
3478;DHT22;37937;61.490;23.506;2023-05-10T09:40:08;23.30;1.00
3478;DHT22;37937;61.490;23.506;2023-05-10T09:42:36;23.30;1.00
3478;DHT22;37937;61.490;23.506;2023-05-10T09:45:04;22.90;1.00
3478;DHT22;37937;61.490;23.506;2023-05-10T09:47:36;23.30;1.00
3478;DHT22;37937;61.490;23.506;2023-05-10T09:50:02;23.50;1.00
3478;DHT22;37937;61.490;23.506;2023-05-10T09:52:29;23.80;1.00
3478;DHT22;37937;61.490;23.506;2023-05-10T09:54:55;23.60;1.00
3478;DHT22;37937;61.490;23.506;2023-05-10T09:57:21;24.20;1.00
3478;DHT22;37937;61.490;23.506;2023-05-10T09:59:47;24.30;1.00
3478;DHT22;37937;61.490;23.506;2023-05-10T10:02:13;24.60;1.00
3478;DHT22;37937;61.490;23.506;2023-05-10T10:04:39;24.40;1.00
3478;DHT22;37937;61.490;23.506;2023-05-10T10:07:05;24.00;1.00
3478;DHT22;37937;61.490;23.506;2023-05-10T10:09:31;24.10;1.00
3478;DHT22;37937;61.490;23.506;2023-05-10T10:11:56;24.00;1.00
3478;DHT22;37937;61.490;23.506;2023-05-10T10:14:22;24.40;1.00
3478;DHT22;37937;61.490;23.506;2023-05-10T10:16:49;24.40;1.00
3478;DHT22;37937;61.490;23.506;2023-05-10T10:19:15;24.30;1.00
3478;DHT22;37937;61.490;23.506;2023-05-10T10:21:41;24.40;1.00
3478;DHT22;37937;61.490;23.506;2023-05-10T10:24:06;24.30;1.00
3478;DHT22;37937;61.490;23.506;2023-05-10T10:26:35;23.90;1.00
3478;DHT22;37937;61.490;23.506;2023-05-10T10:34:32;23.40;1.00
3478;DHT22;37937;61.490;23.506;2023-05-10T10:36:59;23.80;1.00
3478;DHT22;37937;61.490;23.506;2023-05-10T10:39:28;23.60;1.00
3478;DHT22;37937;61.490;23.506;2023-05-10T10:41:55;23.80;1.00
3478;DHT22;37937;61.490;23.506;2023-05-10T10:47:02;23.40;1.00
3478;DHT22;37937;61.490;23.506;2023-05-10T10:49:37;24.00;1.00
3478;DHT22;37937;61.490;23.506;2023-05-10T10:55:30;24.40;1.00
3478;DHT22;37937;61.490;23.506;2023-05-10T11:02:49;24.20;1.00
3478;DHT22;37937;61.490;23.506;2023-05-10T11:07:55;23.70;1.00
3478;DHT22;37937;61.490;23.506;2023-05-10T11:10:21;24.30;1.00
3478;DHT22;37937;61.490;23.506;2023-05-10T11:12:54;24.10;1.00
3478;DHT22;37937;61.490;23.506;2023-05-10T11:15:32;23.60;1.00
3478;DHT22;37937;61.490;23.506;2023-05-10T11:17:58;23.80;1.00
3478;DHT22;37937;61.490;23.506;2023-05-10T11:20:23;24.20;1.00
3478;DHT22;37937;61.490;23.506;2023-05-10T11:22:58;23.80;1.00
3478;DHT22;37937;61.490;23.506;2023-05-10T11:25:39;23.30;1.00
3478;DHT22;37937;61.490;23.506;2023-05-10T11:28:05;23.50;1.00
3478;DHT22;37937;61.490;23.506;2023-05-10T11:30:31;23.10;1.00
3478;DHT22;37937;61.490;23.506;2023-05-10T11:32:57;23.50;1.00
3478;DHT22;37937;61.490;23.506;2023-05-10T11:35:22;23.60;1.00
3478;DHT22;37937;61.490;23.506;2023-05-10T11:37:48;23.50;1.00
3478;DHT22;37937;61.490;23.506;2023-05-10T11:40:14;23.10;1.00
3478;DHT22;37937;61.490;23.506;2023-05-10T11:42:39;23.50;1.00
3478;DHT22;37937;61.490;23.506;2023-05-10T11:45:05;22.90;1.00
3478;DHT22;37937;61.490;23.506;2023-05-10T11:47:31;23.20;1.00
3478;DHT22;37937;61.490;23.506;2023-05-10T11:49:57;22.90;1.00
3478;DHT22;37937;61.490;23.506;2023-05-10T11:52:23;22.80;1.00
3478;DHT22;37937;61.490;23.506;2023-05-10T11:54:52;22.70;1.00
3478;DHT22;37937;61.490;23.506;2023-05-10T11:57:18;22.70;1.00
3478;DHT22;37937;61.490;23.506;2023-05-10T11:59:44;22.80;1.00
3478;DHT22;37937;61.490;23.506;2023-05-10T12:02:09;23.10;1.00
3478;DHT22;37937;61.490;23.506;2023-05-10T12:04:35;22.80;1.00
3478;DHT22;37937;61.490;23.506;2023-05-10T12:07:01;22.60;1.00
3478;DHT22;37937;61.490;23.506;2023-05-10T12:09:26;22.20;1.00
3478;DHT22;37937;61.490;23.506;2023-05-10T12:11:54;22.30;1.00
3478;DHT22;37937;61.490;23.506;2023-05-10T12:14:21;22.50;1.00
3478;DHT22;37937;61.490;23.506;2023-05-10T12:16:47;22.70;1.00
3478;DHT22;37937;61.490;23.506;2023-05-10T12:19:13;22.60;1.00
3478;DHT22;37937;61.490;23.506;2023-05-10T12:21:43;22.70;1.00
3478;DHT22;37937;61.490;23.506;2023-05-10T12:24:09;22.30;1.00
3478;DHT22;37937;61.490;23.506;2023-05-10T12:26:36;22.50;1.00
3478;DHT22;37937;61.490;23.506;2023-05-10T12:29:15;22.40;1.00
3478;DHT22;37937;61.490;23.506;2023-05-10T12:31:57;22.00;1.00
3478;DHT22;37937;61.490;23.506;2023-05-10T12:34:23;22.10;1.00
3478;DHT22;37937;61.490;23.506;2023-05-10T12:36:50;22.50;1.00
3478;DHT22;37937;61.490;23.506;2023-05-10T12:39:16;22.50;1.00
3478;DHT22;37937;61.490;23.506;2023-05-10T12:41:41;22.30;1.00
3478;DHT22;37937;61.490;23.506;2023-05-10T12:44:07;22.00;1.00
3478;DHT22;37937;61.490;23.506;2023-05-10T12:46:32;22.00;1.00
3478;DHT22;37937;61.490;23.506;2023-05-10T12:48:58;21.70;1.00
3478;DHT22;37937;61.490;23.506;2023-05-10T12:51:23;21.60;1.00
3478;DHT22;37937;61.490;23.506;2023-05-10T12:53:49;21.80;1.00
3478;DHT22;37937;61.490;23.506;2023-05-10T12:56:15;21.80;1.00
3478;DHT22;37937;61.490;23.506;2023-05-10T12:58:40;21.50;1.00
3478;DHT22;37937;61.490;23.506;2023-05-10T13:01:06;21.40;1.00
3478;DHT22;37937;61.490;23.506;2023-05-10T13:03:31;21.30;1.00
3478;DHT22;37937;61.490;23.506;2023-05-10T13:05:57;21.40;1.00
3478;DHT22;37937;61.490;23.506;2023-05-10T13:08:23;21.30;1.00
3478;DHT22;37937;61.490;23.506;2023-05-10T13:10:49;21.40;1.00
3478;DHT22;37937;61.490;23.506;2023-05-10T13:13:15;21.40;1.00
3478;DHT22;37937;61.490;23.506;2023-05-10T13:15:40;21.00;1.00
3478;DHT22;37937;61.490;23.506;2023-05-10T13:18:06;20.90;1.00
3478;DHT22;37937;61.490;23.506;2023-05-10T13:20:31;20.80;1.00
3478;DHT22;37937;61.490;23.506;2023-05-10T13:22:57;20.80;1.00
3478;DHT22;37937;61.490;23.506;2023-05-10T13:25:23;20.70;1.00
3478;DHT22;37937;61.490;23.506;2023-05-10T13:27:48;20.80;1.00
3478;DHT22;37937;61.490;23.506;2023-05-10T13:30:14;20.60;1.00
3478;DHT22;37937;61.490;23.506;2023-05-10T13:32:40;20.70;1.00
3478;DHT22;37937;61.490;23.506;2023-05-10T13:35:05;20.60;1.00
3478;DHT22;37937;61.490;23.506;2023-05-10T13:37:31;20.20;1.00
3478;DHT22;37937;61.490;23.506;2023-05-10T13:39:57;20.20;1.00
3478;DHT22;37937;61.490;23.506;2023-05-10T13:42:24;20.20;1.00
3478;DHT22;37937;61.490;23.506;2023-05-10T13:44:50;20.10;1.00
3478;DHT22;37937;61.490;23.506;2023-05-10T13:47:15;20.00;1.00
3478;DHT22;37937;61.490;23.506;2023-05-10T13:49:41;19.80;1.00
3478;DHT22;37937;61.490;23.506;2023-05-10T13:52:07;19.80;1.00
3478;DHT22;37937;61.490;23.506;2023-05-10T13:54:33;19.60;1.00
3478;DHT22;37937;61.490;23.506;2023-05-10T13:56:59;19.60;1.00
3478;DHT22;37937;61.490;23.506;2023-05-10T13:59:25;19.50;1.00
3478;DHT22;37937;61.490;23.506;2023-05-10T14:01:50;19.50;1.00
3478;DHT22;37937;61.490;23.506;2023-05-10T14:04:16;19.50;1.00
3478;DHT22;37937;61.490;23.506;2023-05-10T14:06:42;19.60;1.00
3478;DHT22;37937;61.490;23.506;2023-05-10T14:09:07;19.40;1.00
3478;DHT22;37937;61.490;23.506;2023-05-10T14:11:33;19.30;1.00
3478;DHT22;37937;61.490;23.506;2023-05-10T14:13:58;19.30;1.00
3478;DHT22;37937;61.490;23.506;2023-05-10T14:16:24;19.20;1.00
3478;DHT22;37937;61.490;23.506;2023-05-10T14:18:50;19.20;1.00
3478;DHT22;37937;61.490;23.506;2023-05-10T14:21:15;19.10;1.00
3478;DHT22;37937;61.490;23.506;2023-05-10T14:23:41;19.00;1.00
3478;DHT22;37937;61.490;23.506;2023-05-10T14:26:06;19.00;1.00
3478;DHT22;37937;61.490;23.506;2023-05-10T14:28:32;18.80;1.00
3478;DHT22;37937;61.490;23.506;2023-05-10T14:30:57;18.70;1.00
3478;DHT22;37937;61.490;23.506;2023-05-10T14:33:24;18.80;1.00
3478;DHT22;37937;61.490;23.506;2023-05-10T14:35:50;18.50;1.00
3478;DHT22;37937;61.490;23.506;2023-05-10T14:38:19;18.40;1.00
3478;DHT22;37937;61.490;23.506;2023-05-10T14:40:44;18.50;1.00
3478;DHT22;37937;61.490;23.506;2023-05-10T14:43:10;18.50;1.00
3478;DHT22;37937;61.490;23.506;2023-05-10T14:45:35;18.50;1.00
3478;DHT22;37937;61.490;23.506;2023-05-10T14:48:01;18.40;1.00
3478;DHT22;37937;61.490;23.506;2023-05-10T14:50:30;18.40;1.00
3478;DHT22;37937;61.490;23.506;2023-05-10T14:52:56;18.40;1.00
3478;DHT22;37937;61.490;23.506;2023-05-10T14:55:21;18.30;1.00
3478;DHT22;37937;61.490;23.506;2023-05-10T14:57:47;18.30;1.00
3478;DHT22;37937;61.490;23.506;2023-05-10T15:00:14;18.30;1.00
3478;DHT22;37937;61.490;23.506;2023-05-10T15:02:41;18.40;1.00
3478;DHT22;37937;61.490;23.506;2023-05-10T15:05:06;18.30;1.00
3478;DHT22;37937;61.490;23.506;2023-05-10T15:07:32;18.20;1.00
3478;DHT22;37937;61.490;23.506;2023-05-10T15:09:58;18.30;1.00
3478;DHT22;37937;61.490;23.506;2023-05-10T15:12:23;18.30;1.00
3478;DHT22;37937;61.490;23.506;2023-05-10T15:14:49;18.30;1.00
3478;DHT22;37937;61.490;23.506;2023-05-10T15:17:16;18.20;1.00
3478;DHT22;37937;61.490;23.506;2023-05-10T15:19:42;18.10;1.00
3478;DHT22;37937;61.490;23.506;2023-05-10T15:22:08;18.10;1.00
3478;DHT22;37937;61.490;23.506;2023-05-10T15:24:36;18.10;1.00
3478;DHT22;37937;61.490;23.506;2023-05-10T15:27:02;18.20;1.00
3478;DHT22;37937;61.490;23.506;2023-05-10T15:29:28;18.10;1.00
3478;DHT22;37937;61.490;23.506;2023-05-10T15:31:54;18.10;1.00
3478;DHT22;37937;61.490;23.506;2023-05-10T15:34:20;18.10;1.00
3478;DHT22;37937;61.490;23.506;2023-05-10T15:36:46;18.10;1.00
3478;DHT22;37937;61.490;23.506;2023-05-10T15:39:11;18.00;1.00
3478;DHT22;37937;61.490;23.506;2023-05-10T15:41:37;18.00;1.00
3478;DHT22;37937;61.490;23.506;2023-05-10T15:44:02;18.00;1.00
3478;DHT22;37937;61.490;23.506;2023-05-10T15:46:28;17.80;1.00
3478;DHT22;37937;61.490;23.506;2023-05-10T15:48:54;17.90;1.00
3478;DHT22;37937;61.490;23.506;2023-05-10T15:51:20;17.90;1.00
3478;DHT22;37937;61.490;23.506;2023-05-10T15:53:46;17.90;1.00
3478;DHT22;37937;61.490;23.506;2023-05-10T15:56:11;17.70;1.00
3478;DHT22;37937;61.490;23.506;2023-05-10T15:58:37;17.70;1.00
3478;DHT22;37937;61.490;23.506;2023-05-10T16:01:03;17.60;1.00
3478;DHT22;37937;61.490;23.506;2023-05-10T16:03:30;17.50;1.00
3478;DHT22;37937;61.490;23.506;2023-05-10T16:05:55;17.50;1.00
3478;DHT22;37937;61.490;23.506;2023-05-10T16:08:21;17.50;1.00
3478;DHT22;37937;61.490;23.506;2023-05-10T16:10:47;17.40;1.00
3478;DHT22;37937;61.490;23.506;2023-05-10T16:13:13;17.30;1.00
3478;DHT22;37937;61.490;23.506;2023-05-10T16:15:40;17.30;1.00